Time;durP1;ratioP1;P1;durP2;ratioP2;P2;SDS_P1;SDS_P2;PMS_P1;PMS_P2;Temp;Humidity;BMP_temperature;BMP_pressure;BME280_temperature;BME280_humidity;BME280_pressure;Samples;Min_cycle;Max_cycle;Signal;HPM_P1;HPM_P2
2022/05/10 00:01:24;;;;;;;36.17;15.77;;;;;;;18.10;57.90;100808.94;5109766;28;20135;-69
2022/05/10 00:03:52;;;;;;;36.00;16.48;;;;;;;17.96;58.18;100775.13;5107262;28;20066;-70
2022/05/10 00:06:19;;;;;;;36.28;16.15;;;;;;;17.99;58.29;100782.97;5107999;28;20146;-70
2022/05/10 00:08:46;;;;;;;37.38;16.58;;;;;;;18.09;58.16;100801.63;5102714;28;20142;-70
2022/05/10 00:11:13;;;;;;;31.02;14.77;;;;;;;17.88;58.80;100780.72;5108029;28;20130;-70
2022/05/10 00:13:41;;;;;;;30.50;14.43;;;;;;;17.91;58.75;100792.22;5110556;28;20135;-70
2022/05/10 00:16:12;;;;;;;30.95;15.55;;;;;;;17.83;58.84;100783.69;5107156;28;20142;-71
2022/05/10 00:18:39;;;;;;;36.20;15.20;;;;;;;17.88;58.82;100803.31;5108361;28;20150;-70
2022/05/10 00:21:08;;;;;;;41.72;14.48;;;;;;;17.85;58.57;100787.06;5111710;28;20071;-69
2022/05/10 00:23:34;;;;;;;30.95;15.15;;;;;;;17.68;58.47;100759.50;5108798;28;20130;-67
2022/05/10 00:26:02;;;;;;;30.55;14.93;;;;;;;17.78;58.92;100781.84;5103625;28;20048;-70
2022/05/10 00:28:29;;;;;;;34.80;15.10;;;;;;;17.57;58.43;100746.78;5109625;28;20043;-67
2022/05/10 00:30:56;;;;;;;31.88;15.10;;;;;;;17.87;58.43;100793.19;5108048;27;20070;-66
2022/05/10 00:33:26;;;;;;;31.92;13.93;;;;;;;17.91;58.34;100792.22;5109056;28;20096;-66
2022/05/10 00:35:54;;;;;;;30.77;15.15;;;;;;;17.90;58.17;100793.38;5105597;28;20481;-65
2022/05/10 00:38:42;;;;;;;31.23;13.77;;;;;;;17.83;58.71;100789.34;5105013;28;20044;-66
2022/05/10 00:41:33;;;;;;;27.98;13.52;;;;;;;17.74;58.51;100792.94;5108717;28;20142;-66
2022/05/10 00:44:34;;;;;;;28.63;13.57;;;;;;;17.62;58.39;100774.91;5097348;28;20126;-66
2022/05/10 00:47:09;;;;;;;25.55;13.23;;;;;;;17.55;58.84;100749.94;5106765;28;20083;-65
2022/05/10 00:49:43;;;;;;;33.85;13.65;;;;;;;17.73;58.69;100790.41;5104710;28;20075;-66
2022/05/10 00:52:21;;;;;;;38.58;15.40;;;;;;;17.74;58.61;100781.66;5108103;28;20497;-65
2022/05/10 00:55:12;;;;;;;29.45;13.20;;;;;;;17.62;58.28;100767.28;5112294;28;20173;-65
2022/05/10 00:57:46;;;;;;;27.90;13.65;;;;;;;17.69;58.73;100776.13;5061052;27;1402773;-66
2022/05/10 01:00:14;;;;;;;27.08;12.63;;;;;;;17.63;58.96;100783.03;5111080;27;20494;-65
2022/05/10 01:02:48;;;;;;;38.45;13.52;;;;;;;17.49;58.86;100771.00;5111300;28;20119;-65
2022/05/10 01:05:28;;;;;;;34.25;14.27;;;;;;;17.56;59.22;100785.50;5111471;27;20055;-65
2022/05/10 01:08:14;;;;;;;26.20;14.27;;;;;;;17.59;59.41;100779.22;5114477;27;20126;-64
2022/05/10 01:10:54;;;;;;;26.58;12.20;;;;;;;17.55;59.84;100780.19;5106323;27;20112;-65
2022/05/10 01:13:28;;;;;;;36.40;13.70;;;;;;;17.56;59.81;100771.38;5114948;27;20130;-65
2022/05/10 01:16:08;;;;;;;24.67;11.55;;;;;;;17.59;60.50;100772.72;5111823;27;20044;-64
2022/05/10 01:18:38;;;;;;;31.95;14.40;;;;;;;17.61;60.89;100762.78;5107870;28;20096;-67
2022/05/10 01:21:34;;;;;;;33.88;14.80;;;;;;;17.59;60.44;100762.25;5115389;28;20575;-67
2022/05/10 01:24:13;;;;;;;27.33;13.30;;;;;;;17.63;60.71;100766.09;5109875;27;20550;-66
2022/05/10 01:27:14;;;;;;;58.35;14.15;;;;;;;17.52;60.84;100744.94;5115742;27;20086;-65
2022/05/10 01:29:55;;;;;;;38.65;14.38;;;;;;;17.65;61.07;100771.44;5111963;27;20086;-66
2022/05/10 01:35:21;;;;;;;31.70;13.93;;;;;;;17.62;61.10;100755.97;5115792;28;20083;-65
2022/05/10 01:37:55;;;;;;;68.43;15.25;;;;;;;17.63;61.30;100757.63;5112832;27;20419;-65
2022/05/10 01:40:37;;;;;;;95.25;18.42;;;;;;;17.15;61.22;100679.28;5111879;27;20124;-65
2022/05/10 01:43:27;;;;;;;51.53;14.55;;;;;;;17.60;60.96;100751.78;5110942;27;20123;-66
2022/05/10 01:45:56;;;;;;;;;;;;;;;17.41;61.34;100758.50;5111235;28;20470;-66
2022/05/10 01:48:24;;;;;;;104.20;16.88;;;;;;;17.55;61.36;100749.94;5110390;27;19923;-66
2022/05/10 01:51:23;;;;;;;107.47;15.73;;;;;;;17.50;60.83;100742.47;5109674;28;20075;-65
2022/05/10 01:53:49;;;;;;;54.42;15.10;;;;;;;17.44;61.64;100725.97;5111943;27;20048;-65
2022/05/10 01:56:23;;;;;;;93.85;16.67;;;;;;;17.60;61.22;100752.63;5097549;27;20148;-65
2022/05/10 01:58:51;;;;;;;31.65;14.68;;;;;;;17.56;61.74;100750.78;5108861;27;20537;-65
2022/05/10 02:01:18;;;;;;;42.35;15.18;;;;;;;17.61;61.90;100765.59;5104778;27;20079;-64
2022/05/10 02:04:09;;;;;;;34.28;14.13;;;;;;;17.64;61.85;100759.31;5110458;27;20461;-65
2022/05/10 02:06:39;;;;;;;52.95;15.88;;;;;;;17.65;61.79;100766.63;5112828;28;20681;-66
2022/05/10 02:09:11;;;;;;;35.42;15.55;;;;;;;17.69;61.68;100766.81;5115324;27;20216;-67
2022/05/10 02:11:43;;;;;;;33.58;15.70;;;;;;;17.73;62.19;100763.00;5111582;27;20112;-66
2022/05/10 02:14:32;;;;;;;42.88;15.52;;;;;;;17.74;61.83;100764.69;5112507;28;20522;-66
2022/05/10 02:17:13;;;;;;;53.72;17.13;;;;;;;17.60;62.16;100740.50;5112439;28;20142;-65
2022/05/10 02:19:47;;;;;;;60.00;16.90;;;;;;;17.61;62.09;100736.53;5104642;27;20450;-65
2022/05/10 02:22:43;;;;;;;100.85;17.00;;;;;;;17.63;61.75;100754.81;5110465;28;20116;-65
2022/05/10 02:25:16;;;;;;;75.35;16.95;;;;;;;17.63;61.84;100746.34;5102979;27;20130;-65
2022/05/10 02:27:55;;;;;;;59.78;17.17;;;;;;;17.53;61.55;100744.59;5113304;27;20158;-67
2022/05/10 02:30:27;;;;;;;179.82;21.15;;;;;;;17.60;61.54;100760.25;5093043;27;20093;-67
2022/05/10 02:33:09;;;;;;;75.75;18.55;;;;;;;17.56;61.92;100762.06;5110613;28;20469;-66
2022/05/10 02:35:42;;;;;;;95.40;18.23;;;;;;;17.55;62.21;100766.91;5112955;27;20127;-66
2022/05/10 02:38:13;;;;;;;36.97;15.10;;;;;;;17.57;62.20;100752.44;5112957;28;20506;-66
2022/05/10 02:40:43;;;;;;;70.85;15.32;;;;;;;17.47;62.41;100730.94;5112727;28;20514;-67
2022/05/10 02:43:24;;;;;;;34.45;15.43;;;;;;;17.48;61.97;100738.28;5109864;28;20585;-66
2022/05/10 02:45:54;;;;;;;32.38;15.32;;;;;;;17.45;62.25;100741.75;5111720;28;20079;-67
2022/05/10 02:48:23;;;;;;;42.92;15.48;;;;;;;17.61;62.34;100757.13;5113663;27;20112;-65
2022/05/10 02:50:50;;;;;;;42.13;16.20;;;;;;;17.61;62.76;100748.66;5114775;27;20130;-67
2022/05/10 02:53:17;;;;;;;42.08;15.32;;;;;;;17.67;62.68;100752.16;5113468;27;20101;-66
2022/05/10 02:56:04;;;;;;;49.08;14.88;;;;;;;17.66;62.12;100745.69;5111739;27;20562;-67
2022/05/10 02:58:50;;;;;;;41.28;15.68;;;;;;;17.60;62.37;100734.84;5111974;27;20159;-67
2022/05/10 03:01:35;;;;;;;39.45;16.83;;;;;;;17.68;62.45;100746.22;5110544;27;20476;-68
2022/05/10 03:04:04;;;;;;;37.67;16.05;;;;;;;17.60;62.77;100741.31;5113211;28;20138;-65
2022/05/10 03:06:32;;;;;;;47.85;17.77;;;;;;;17.60;62.94;100743.31;5111511;27;20134;-66
2022/05/10 03:09:00;;;;;;;41.00;16.05;;;;;;;17.49;62.75;100723.84;5111120;27;20574;-65
2022/05/10 03:11:27;;;;;;;59.60;16.95;;;;;;;17.59;62.81;100750.13;5113358;28;20123;-67
2022/05/10 03:13:55;;;;;;;61.55;18.13;;;;;;;17.48;63.08;100730.66;5112074;28;20083;-68
2022/05/10 03:16:23;;;;;;;36.47;16.50;;;;;;;17.40;62.86;100724.94;5110350;28;20510;-65
2022/05/10 03:18:52;;;;;;;50.75;17.23;;;;;;;17.53;63.07;100735.31;5113296;28;20057;-67
2022/05/10 03:21:20;;;;;;;42.58;14.77;;;;;;;17.47;62.58;100737.47;5111884;28;20498;-66
2022/05/10 03:23:48;;;;;;;69.75;16.38;;;;;;;17.36;62.90;100716.28;5114393;28;20051;-66
2022/05/10 03:26:18;;;;;;;47.13;17.33;;;;;;;17.32;62.35;100709.59;5114479;27;20131;-67
2022/05/10 03:28:45;;;;;;;59.70;16.65;;;;;;;17.35;62.10;100717.44;5113324;28;20052;-67
2022/05/10 03:31:14;;;;;;;59.63;17.15;;;;;;;17.44;62.24;100740.09;5101779;28;20461;-67
2022/05/10 03:33:42;;;;;;;49.92;16.77;;;;;;;17.37;62.78;100728.41;5110022;28;20089;-67
2022/05/10 03:36:09;;;;;;;42.40;19.35;;;;;;;17.27;62.79;100721.03;5108442;28;20128;-69
2022/05/10 03:38:36;;;;;;;52.60;18.30;;;;;;;17.26;62.93;100719.34;5113659;28;20501;-68
2022/05/10 03:41:03;;;;;;;44.20;18.00;;;;;;;17.39;63.42;100738.22;5112741;27;20083;-68
2022/05/10 03:43:31;;;;;;;49.47;18.50;;;;;;;17.25;62.88;100723.34;5113801;28;20180;-67
2022/05/10 03:46:04;;;;;;;63.55;19.10;;;;;;;17.26;62.91;100716.53;5111564;27;20545;-67
2022/05/10 03:48:31;;;;;;;124.10;20.33;;;;;;;16.99;63.08;100678.84;5110955;28;20083;-68
2022/05/10 03:50:58;;;;;;;60.47;18.50;;;;;;;17.20;62.69;100727.13;5105126;27;20075;-69
2022/05/10 03:53:25;;;;;;;66.38;18.40;;;;;;;17.17;62.64;100721.31;5110282;27;20039;-68
2022/05/10 03:55:52;;;;;;;134.68;20.67;;;;;;;17.12;63.11;100735.53;5110656;27;20077;-68
2022/05/10 03:58:19;;;;;;;59.95;21.02;;;;;;;17.07;63.35;100742.13;5112223;28;20142;-68
2022/05/10 04:00:45;;;;;;;50.75;20.15;;;;;;;16.94;63.14;100729.75;5106803;28;20413;-68
2022/05/10 04:03:12;;;;;;;45.80;20.27;;;;;;;17.00;63.46;100736.94;5109744;27;20051;-68
2022/05/10 04:05:40;;;;;;;61.80;20.77;;;;;;;17.18;63.80;100757.66;5109363;28;20052;-68
2022/05/10 04:08:07;;;;;;;51.13;21.27;;;;;;;17.20;63.97;100755.38;5108763;28;20650;-68
2022/05/10 04:10:34;;;;;;;51.40;20.40;;;;;;;17.29;63.77;100750.59;5112175;27;20043;-68
2022/05/10 04:13:01;;;;;;;49.75;18.85;;;;;;;17.25;63.49;100741.09;5110385;28;20075;-68
2022/05/10 04:15:28;;;;;;;51.17;20.42;;;;;;;17.15;63.33;100735.72;5105124;27;20055;-68
2022/05/10 04:17:55;;;;;;;49.08;20.20;;;;;;;17.11;63.13;100751.63;5108329;28;20078;-67
2022/05/10 04:20:22;;;;;;;50.50;20.05;;;;;;;16.99;63.39;100732.47;5108954;27;20100;-68
2022/05/10 04:22:49;;;;;;;44.05;18.80;;;;;;;17.07;63.49;100739.31;5111175;28;20131;-68
2022/05/10 04:25:23;;;;;;;45.83;21.38;;;;;;;17.17;63.44;100749.53;5107316;28;20055;-68
2022/05/10 04:27:52;;;;;;;55.63;22.27;;;;;;;17.10;63.69;100726.56;5106272;27;20040;-66
2022/05/10 04:30:21;;;;;;;49.22;19.70;;;;;;;16.99;63.90;100709.91;5105371;27;20566;-67
2022/05/10 04:32:49;;;;;;;52.45;20.20;;;;;;;17.16;63.83;100736.56;5109707;28;20058;-67
2022/05/10 04:35:16;;;;;;;51.08;20.25;;;;;;;17.14;63.54;100739.72;5106405;28;20043;-67
2022/05/10 04:37:42;;;;;;;54.13;20.13;;;;;;;17.17;63.71;100733.44;5111327;28;20047;-68
2022/05/10 04:42:55;;;;;;;56.25;17.08;;;;;;;17.03;63.34;100744.78;5106965;28;20123;-66
2022/05/10 04:45:22;;;;;;;61.13;17.50;;;;;;;16.90;63.50;100728.72;5109922;28;20098;-66
2022/05/10 04:47:49;;;;;;;71.93;19.80;;;;;;;16.84;63.38;100735.63;5108109;28;20565;-66
2022/05/10 04:50:16;;;;;;;63.73;19.47;;;;;;;16.75;63.76;100729.94;5109501;28;20083;-67
2022/05/10 04:52:43;;;;;;;74.10;22.88;;;;;;;16.78;63.63;100748.19;5105628;28;20096;-66
2022/05/10 04:55:10;;;;;;;59.88;21.45;;;;;;;16.77;64.26;100735.25;5108825;28;20079;-67
2022/05/10 04:57:39;;;;;;;57.03;22.63;;;;;;;16.80;64.19;100741.09;5126564;28;20098;-67
2022/05/10 05:00:07;;;;;;;69.15;19.20;;;;;;;16.84;64.33;100743.25;5110106;28;20126;-67
2022/05/10 05:02:35;;;;;;;138.88;24.05;;;;;;;16.79;64.27;100742.25;5111664;28;20082;-66
2022/05/10 05:05:03;;;;;;;76.75;21.35;;;;;;;16.62;64.24;100716.66;5108747;28;20043;-68
2022/05/10 05:07:30;;;;;;;68.40;23.00;;;;;;;16.79;64.57;100747.88;5111754;28;20073;-68
2022/05/10 05:09:57;;;;;;;84.63;21.33;;;;;;;16.72;64.59;100741.81;5111723;28;20044;-66
2022/05/10 05:12:24;;;;;;;67.70;20.48;;;;;;;16.90;64.45;100759.75;5104289;28;20143;-68
2022/05/10 05:14:51;;;;;;;63.97;22.42;;;;;;;16.77;64.35;100730.44;5104825;28;20092;-67
2022/05/10 05:17:18;;;;;;;63.08;23.23;;;;;;;16.87;64.63;100739.81;5110511;28;20473;-67
2022/05/10 05:19:45;;;;;;;62.50;20.33;;;;;;;16.81;64.53;100734.28;5112531;28;20043;-68
2022/05/10 05:22:13;;;;;;;59.38;23.05;;;;;;;16.87;64.40;100746.28;5108717;28;20130;-71
2022/05/10 05:24:39;;;;;;;65.97;23.48;;;;;;;16.87;64.40;100751.09;5109308;28;20387;-69
2022/05/10 05:27:06;;;;;;;67.32;24.40;;;;;;;16.87;64.18;100748.28;5109486;28;20079;-69
2022/05/10 05:29:34;;;;;;;62.28;24.10;;;;;;;17.04;64.36;100768.16;5112488;28;20077;-67
2022/05/10 05:32:31;;;;;;;63.40;25.08;;;;;;;17.05;64.58;100761.38;5106229;28;20051;-68
2022/05/10 05:34:58;;;;;;;64.55;23.45;;;;;;;17.07;65.36;100766.72;5110158;28;20104;-67
2022/05/10 05:37:37;;;;;;;67.60;24.67;;;;;;;17.00;65.25;100761.50;5112188;28;20055;-68
2022/05/10 05:40:08;;;;;;;63.45;23.73;;;;;;;16.96;65.31;100755.66;5109648;27;20050;-67
2022/05/10 05:42:40;;;;;;;55.42;21.73;;;;;;;17.09;65.54;100770.84;5114791;28;20093;-66
2022/05/10 05:45:13;;;;;;;58.92;21.00;;;;;;;17.45;64.96;100772.81;5115130;27;20126;-65
2022/05/10 05:47:40;;;;;;;61.33;22.30;;;;;;;18.26;64.78;100774.59;5104739;28;20086;-67
2022/05/10 05:50:10;;;;;;;52.10;19.40;;;;;;;18.84;63.16;100779.09;5105601;28;20048;-66
2022/05/10 05:52:38;;;;;;;62.63;21.60;;;;;;;19.13;63.03;100775.63;5112896;27;20075;-66
2022/05/10 05:55:07;;;;;;;49.03;18.15;;;;;;;19.43;62.51;100782.25;5115862;27;20086;-66
2022/05/10 05:57:36;;;;;;;41.67;17.05;;;;;;;18.91;61.65;100759.63;5110066;27;20050;-66
2022/05/10 06:00:06;;;;;;;71.75;19.88;;;;;;;18.61;61.50;100782.00;5102256;27;20067;-67
2022/05/10 06:02:33;;;;;;;53.58;20.23;;;;;;;18.14;61.68;100764.72;5111313;28;20042;-67
2022/05/10 06:05:01;;;;;;;50.25;18.95;;;;;;;17.94;61.86;100785.09;5113153;27;20535;-66
2022/05/10 06:07:28;;;;;;;55.47;20.30;;;;;;;17.55;63.08;100783.84;5117282;27;20051;-67
2022/05/10 06:09:55;;;;;;;56.58;20.17;;;;;;;17.18;63.48;100780.22;5115602;27;20126;-68
2022/05/10 06:12:22;;;;;;;72.55;22.20;;;;;;;17.01;63.91;100768.81;5111888;27;20070;-68
2022/05/10 06:14:49;;;;;;;52.58;18.45;;;;;;;17.03;64.22;100795.56;5115206;28;20107;-67
2022/05/10 06:17:17;;;;;;;50.30;16.17;;;;;;;16.71;64.45;100762.69;5112684;27;20134;-66
2022/05/10 06:19:45;;;;;;;47.28;16.13;;;;;;;16.65;65.01;100788.50;5112213;28;20504;-67
2022/05/10 06:22:13;;;;;;;52.35;16.98;;;;;;;16.55;64.80;100786.75;5111990;28;20134;-69
2022/05/10 06:24:41;;;;;;;44.08;18.42;;;;;;;16.49;64.91;100780.38;5115516;27;20124;-68
2022/05/10 06:27:13;;;;;;;43.22;18.10;;;;;;;16.50;65.13;100779.22;5106594;27;20079;-69
2022/05/10 06:29:40;;;;;;;53.95;18.83;;;;;;;16.38;65.39;100764.00;5109637;27;20086;-67
2022/05/10 06:32:07;;;;;;;39.53;13.45;;;;;;;16.14;65.10;100734.06;5112586;27;20071;-65
2022/05/10 06:34:34;;;;;;;43.65;14.10;;;;;;;16.36;65.37;100795.31;5110673;28;20089;-66
2022/05/10 06:37:01;;;;;;;54.88;15.07;;;;;;;16.30;65.46;100793.75;5114461;27;20490;-66
2022/05/10 06:39:28;;;;;;;69.40;16.70;;;;;;;16.18;65.39;100780.19;5108832;27;20082;-66
2022/05/10 06:41:54;;;;;;;40.20;15.50;;;;;;;16.02;65.09;100764.72;5108821;28;20078;-73
2022/05/10 06:44:21;;;;;;;43.58;16.15;;;;;;;16.10;65.36;100783.72;5115016;28;20084;-67
2022/05/10 06:46:48;;;;;;;38.63;12.68;;;;;;;16.08;65.80;100797.28;5108193;27;20126;-68
2022/05/10 06:49:18;;;;;;;46.28;14.90;;;;;;;16.09;65.45;100802.59;5110076;27;20092;-68
2022/05/10 06:51:44;;;;;;;45.13;13.90;;;;;;;16.10;65.50;100795.84;5107690;27;20047;-67
2022/05/10 06:54:11;;;;;;;61.88;15.93;;;;;;;16.08;65.33;100800.13;5109507;27;20126;-67
2022/05/10 06:56:38;;;;;;;55.00;15.37;;;;;;;15.80;65.58;100763.47;5105649;28;20080;-67
2022/05/10 06:59:05;;;;;;;86.40;15.98;;;;;;;15.91;65.73;100769.75;5109030;28;20043;-67
2022/05/10 07:01:34;;;;;;;41.65;15.35;;;;;;;16.18;65.51;100797.09;5113361;28;20138;-67
2022/05/10 07:04:02;;;;;;;80.65;17.58;;;;;;;16.41;65.64;100816.91;5104380;28;20040;-68
2022/05/10 07:06:29;;;;;;;63.88;15.60;;;;;;;16.45;65.51;100820.81;5099453;28;20109;-67
2022/05/10 07:08:56;;;;;;;43.95;14.52;;;;;;;16.44;65.46;100802.19;5111135;28;20434;-67
2022/05/10 07:11:23;;;;;;;44.67;16.65;;;;;;;16.37;65.63;100787.69;5113000;28;20090;-67
2022/05/10 07:13:50;;;;;;;41.05;17.13;;;;;;;16.56;65.57;100808.97;5108844;28;20043;-68
2022/05/10 07:16:17;;;;;;;44.42;17.90;;;;;;;16.69;65.27;100812.94;5114222;28;20044;-68
2022/05/10 07:18:44;;;;;;;48.78;17.88;;;;;;;16.82;65.40;100839.50;5109871;28;20048;-67
2022/05/10 07:21:11;;;;;;;55.38;18.25;;;;;;;16.76;65.50;100813.38;5110607;28;20142;-67
2022/05/10 07:23:37;;;;;;;48.30;20.25;;;;;;;16.87;65.81;100824.44;5113686;28;20093;-67
2022/05/10 07:26:05;;;;;;;50.35;17.95;;;;;;;16.89;65.56;100802.38;5114469;28;20507;-67
2022/05/10 07:28:33;;;;;;;41.38;18.23;;;;;;;16.97;65.57;100796.81;5113759;27;20075;-67
2022/05/10 07:31:00;;;;;;;43.38;18.80;;;;;;;17.23;65.22;100836.56;5112016;28;20092;-67
2022/05/10 07:33:28;;;;;;;46.58;17.90;;;;;;;17.13;65.10;100828.34;5113074;28;20436;-68
2022/05/10 07:38:41;;;;;;;44.65;18.83;;;;;;;17.07;64.80;100806.22;5109256;27;20829;-67
2022/05/10 07:41:11;;;;;;;47.30;18.77;;;;;;;17.20;65.10;100817.44;5110633;27;20082;-68
2022/05/10 07:43:39;;;;;;;42.58;18.20;;;;;;;17.46;64.27;100831.75;5124246;27;20092;-67
2022/05/10 07:46:06;;;;;;;41.00;18.38;;;;;;;17.44;63.90;100822.78;5123691;27;20138;-67
2022/05/10 07:48:34;;;;;;;45.30;18.35;;;;;;;17.58;63.81;100834.03;5109255;28;20039;-67
2022/05/10 07:51:02;;;;;;;51.78;20.42;;;;;;;17.62;63.68;100840.69;5110783;28;20134;-66
2022/05/10 07:53:31;;;;;;;47.17;20.00;;;;;;;17.73;63.58;100835.63;5106813;28;20128;-68
2022/05/10 07:56:00;;;;;;;50.00;19.83;;;;;;;17.85;63.03;100835.91;5103693;27;20050;-68
2022/05/10 07:58:28;;;;;;;55.08;20.88;;;;;;;18.05;63.01;100836.50;5110747;27;20047;-67
2022/05/10 08:00:56;;;;;;;50.20;21.02;;;;;;;18.23;63.02;100843.94;5107783;28;20737;-68
2022/05/10 08:03:25;;;;;;;49.15;20.40;;;;;;;18.45;63.31;100835.34;5112059;27;20138;-67
2022/05/10 08:05:56;;;;;;;45.80;20.40;;;;;;;18.75;62.96;100840.50;5110436;28;20049;-67
2022/05/10 08:08:24;;;;;;;46.55;18.45;;;;;;;18.87;62.81;100835.00;5108281;28;20094;-68
2022/05/10 08:11:02;;;;;;;43.88;20.73;;;;;;;18.98;62.42;100836.38;5106486;28;20051;-68
2022/05/10 08:13:31;;;;;;;46.15;19.67;;;;;;;19.13;61.48;100837.88;5108844;27;20047;-67
2022/05/10 08:15:59;;;;;;;54.60;22.52;;;;;;;19.31;61.22;100842.38;5108717;28;20127;-68
2022/05/10 08:18:27;;;;;;;53.15;20.25;;;;;;;19.78;61.06;100841.75;5108428;27;20176;-68
2022/05/10 08:20:57;;;;;;;41.15;18.90;;;;;;;20.22;60.30;100843.28;5108681;28;20889;-67
2022/05/10 08:23:26;;;;;;;;;;;;;;;20.53;60.41;100840.19;5108255;28;20459;-68
2022/05/10 08:25:55;;;;;;;48.30;19.80;;;;;;;21.04;59.18;100838.22;5107227;28;20318;-68
2022/05/10 08:28:23;;;;;;;41.43;18.57;;;;;;;21.28;58.69;100837.53;5109786;28;20383;-67
2022/05/10 08:30:51;;;;;;;35.88;20.02;;;;;;;21.52;58.12;100825.50;5107347;28;20127;-68
2022/05/10 08:33:32;;;;;;;40.45;19.40;;;;;;;21.89;57.45;100831.34;5111998;28;20401;-68
2022/05/10 08:35:59;;;;;;;39.60;18.73;;;;;;;22.36;56.59;100848.09;5108340;28;20116;-68
2022/05/10 08:38:28;;;;;;;35.35;16.38;;;;;;;22.63;56.02;100829.50;5109990;28;20130;-68
2022/05/10 08:41:26;;;;;;;36.40;18.42;;;;;;;23.05;55.43;100843.47;5106718;28;20134;-68
2022/05/10 08:44:06;;;;;;;34.50;17.17;;;;;;;23.46;54.44;100838.63;5118160;27;20047;-68
2022/05/10 08:46:37;;;;;;;37.58;17.80;;;;;;;23.70;53.46;100828.38;5107192;28;20545;-68
2022/05/10 08:49:16;;;;;;;30.08;16.08;;;;;;;24.34;53.04;100839.53;5106602;28;20051;-67
2022/05/10 08:51:42;;;;;;;35.95;15.75;;;;;;;24.81;51.71;100835.00;5105528;28;20044;-68
2022/05/10 08:54:09;;;;;;;30.83;15.68;;;;;;;25.30;50.69;100826.00;5104928;28;20557;-67
2022/05/10 08:56:57;;;;;;;36.13;17.08;;;;;;;25.53;50.16;100814.63;5104979;28;20142;-68
2022/05/10 08:59:30;;;;;;;30.80;16.63;;;;;;;25.84;49.52;100830.84;5105128;28;20067;-68
2022/05/10 09:02:05;;;;;;;29.83;16.17;;;;;;;26.16;49.06;100831.47;5102820;28;20071;-69
2022/05/10 09:04:41;;;;;;;33.30;18.20;;;;;;;26.55;48.28;100828.50;5107431;28;20062;-68
2022/05/10 09:07:48;;;;;;;38.17;18.83;;;;;;;26.73;47.60;100807.91;5105348;28;20108;-68
2022/05/10 09:10:27;;;;;;;34.65;15.80;;;;;;;27.23;46.89;100820.19;5108705;28;20134;-68
2022/05/10 09:13:16;;;;;;;30.80;16.67;;;;;;;27.60;46.34;100826.84;5102733;28;20149;-68
2022/05/10 09:15:45;;;;;;;38.05;18.65;;;;;;;27.63;45.29;100814.59;5110535;27;20123;-67
2022/05/10 09:18:20;;;;;;;36.38;18.15;;;;;;;27.75;45.21;100824.97;5111853;27;20047;-68
2022/05/10 09:20:55;;;;;;;38.97;19.33;;;;;;;27.85;44.76;100835.78;5111569;28;20048;-67
2022/05/10 09:23:35;;;;;;;34.33;18.15;;;;;;;28.00;44.20;100830.19;5114666;28;20051;-68
2022/05/10 09:26:03;;;;;;;39.28;19.42;;;;;;;28.10;43.79;100824.59;5113635;28;20493;-68
2022/05/10 09:28:38;;;;;;;32.55;18.75;;;;;;;28.15;43.62;100831.19;5110619;27;20569;-67
2022/05/10 09:34:49;;;;;;;34.17;17.17;;;;;;;28.43;42.98;100790.44;5103195;28;20040;-67
2022/05/10 09:37:20;;;;;;;38.30;19.30;;;;;;;28.97;41.90;100849.19;5111442;27;20052;-68
2022/05/10 09:39:59;;;;;;;40.65;19.70;;;;;;;28.99;41.86;100829.47;5111734;27;20519;-69
2022/05/10 09:42:54;;;;;;;34.33;18.48;;;;;;;28.78;42.30;100838.75;5109185;27;20054;-68
2022/05/10 09:45:26;;;;;;;37.83;18.52;;;;;;;28.88;41.97;100840.06;5107393;27;20047;-69
2022/05/10 09:47:59;;;;;;;36.15;19.40;;;;;;;28.97;41.83;100843.44;5108328;27;20135;-67
2022/05/10 09:50:30;;;;;;;36.70;19.17;;;;;;;29.27;40.87;100840.38;5110514;28;20403;-67
2022/05/10 09:53:11;;;;;;;38.58;18.95;;;;;;;29.51;40.90;100845.44;5109902;28;20493;-68
2022/05/10 09:55:41;;;;;;;38.22;20.45;;;;;;;29.58;40.21;100815.06;5112990;27;20082;-67
2022/05/10 09:58:19;;;;;;;34.53;18.92;;;;;;;29.75;39.56;100823.78;5111266;27;20108;-68
2022/05/10 10:00:56;;;;;;;37.63;19.30;;;;;;;29.98;39.31;100834.97;5114312;27;20070;-67
2022/05/10 10:03:32;;;;;;;40.83;21.77;;;;;;;30.01;39.42;100832.50;5107535;28;20058;-67
2022/05/10 10:06:21;;;;;;;43.20;20.10;;;;;;;30.07;39.05;100845.28;5111524;27;20113;-69
2022/05/10 10:08:54;;;;;;;37.05;19.25;;;;;;;30.03;38.70;100830.06;5112730;28;20154;-68
2022/05/10 10:11:26;;;;;;;34.85;17.73;;;;;;;30.26;38.88;100847.84;5114984;28;20047;-68
2022/05/10 10:14:01;;;;;;;41.22;22.00;;;;;;;30.25;37.98;100831.75;5109754;28;20131;-68
2022/05/10 10:16:34;;;;;;;32.92;17.73;;;;;;;30.49;37.92;100852.38;5138908;27;20158;-67
2022/05/10 10:19:00;;;;;;;32.63;17.95;;;;;;;30.75;37.45;100859.81;5107221;28;20560;-68
2022/05/10 10:21:41;;;;;;;31.40;17.75;;;;;;;30.75;37.52;100854.88;5111915;28;20043;-68
2022/05/10 10:24:13;;;;;;;33.47;17.17;;;;;;;30.68;37.03;100843.34;5109533;28;20074;-68
2022/05/10 10:26:51;;;;;;;32.83;17.77;;;;;;;30.33;37.68;100847.84;5109161;28;20048;-67
2022/05/10 10:29:41;;;;;;;30.02;15.88;;;;;;;30.53;37.69;100853.19;5113942;27;20135;-68
2022/05/10 10:32:15;;;;;;;32.92;16.25;;;;;;;30.77;36.70;100829.38;5112225;28;20132;-69
2022/05/10 10:35:13;;;;;;;34.35;16.80;;;;;;;30.75;36.92;100834.69;5110197;28;20134;-68
2022/05/10 10:37:58;;;;;;;29.95;15.98;;;;;;;30.38;36.57;100826.44;5111166;27;20484;-68
2022/05/10 10:40:30;;;;;;;30.00;16.33;;;;;;;30.39;36.63;100848.25;5113087;27;20082;-66
2022/05/10 10:43:25;;;;;;;23.67;13.05;;;;;;;30.40;36.82;100850.72;5110024;27;20149;-67
2022/05/10 10:45:58;;;;;;;27.58;15.77;;;;;;;30.29;36.36;100838.38;5109609;27;20130;-68
2022/05/10 10:48:42;;;;;;;23.77;14.57;;;;;;;30.14;36.98;100845.28;5106154;27;20134;-68
2022/05/10 10:51:09;;;;;;;24.10;13.80;;;;;;;30.04;36.68;100857.59;5112574;27;20142;-68
2022/05/10 10:53:39;;;;;;;27.63;16.13;;;;;;;30.03;37.10;100830.06;5110416;28;20071;-68
2022/05/10 10:56:22;;;;;;;32.20;15.82;;;;;;;29.94;36.55;100842.75;5109887;28;20094;-68
2022/05/10 10:59:26;;;;;;;23.95;14.65;;;;;;;29.75;36.98;100848.88;5122245;28;20045;-68
2022/05/10 11:02:11;;;;;;;27.80;14.20;;;;;;;29.76;36.98;100859.16;5104951;28;20240;-67
2022/05/10 11:04:56;;;;;;;28.17;15.43;;;;;;;29.71;37.40;100860.38;5106128;28;20563;-66
2022/05/10 11:07:43;;;;;;;24.55;14.30;;;;;;;29.97;36.82;100850.59;5105089;27;20116;-68
2022/05/10 11:10:34;;;;;;;26.88;14.27;;;;;;;30.04;36.84;100837.44;5101460;28;20075;-68
2022/05/10 11:13:08;;;;;;;21.75;13.57;;;;;;;30.07;36.52;100848.97;5105970;27;20514;-67
2022/05/10 11:16:03;;;;;;;22.08;13.82;;;;;;;30.02;36.62;100849.38;5102825;27;20166;-68
2022/05/10 11:18:35;;;;;;;21.25;13.25;;;;;;;30.09;36.19;100852.28;5110124;27;20101;-67
2022/05/10 11:21:27;;;;;;;22.80;14.00;;;;;;;29.93;36.04;100849.75;5109675;28;20130;-68
2022/05/10 11:24:32;;;;;;;20.45;12.45;;;;;;;29.85;36.44;100865.38;5107479;28;20074;-68
2022/05/10 11:27:11;;;;;;;24.60;13.30;;;;;;;29.74;37.11;100847.22;5048322;28;20049;-68
2022/05/10 11:29:40;;;;;;;20.98;12.30;;;;;;;30.01;36.78;100850.59;5049025;28;20530;-68
2022/05/10 11:32:22;;;;;;;21.42;13.38;;;;;;;29.92;36.74;100836.59;5081718;28;20143;-69
2022/05/10 11:35:15;;;;;;;22.35;12.23;;;;;;;30.08;36.11;100844.84;5113527;28;20123;-69
2022/05/10 11:37:59;;;;;;;22.90;14.57;;;;;;;29.99;36.04;100804.94;5103598;28;20078;-68
2022/05/10 11:41:02;;;;;;;22.15;13.15;;;;;;;29.96;36.57;100825.91;5110846;27;20086;-69
2022/05/10 11:44:14;;;;;;;20.08;12.35;;;;;;;29.79;36.42;100823.81;5104080;27;20090;-69
2022/05/10 11:46:53;;;;;;;25.23;14.02;;;;;;;29.69;36.48;100827.47;5103519;28;20094;-70
2022/05/10 11:49:23;;;;;;;;;;;;;;;28.99;38.03;100817.97;5111481;28;20359;-68